Valley Park, Mississippi
Current Conditions -  °F | °C
As of 2:53 AM on Saturday 29 Nov 2014 (Local Time) from KTVR Reporting Station
Clear Clear  
Wind Chill: 42°   Ceiling: Unl
Heat Index: 46°   Visibility: 10mi
Dew Point: 42°   Wind: 8mph
Humidity: 86%   Direction: 160°SSE
Pressure: 30.15"   Gusts: NA
Location:  32.63°N, 90.87°W
Report Text: KTVR 290853Z AUTO 16007KT 10SM CLR 08/06 A3015 RMK AO2 SLP218 T00780056 56006
Loading
Personal Weather Stations






























Interactive Weather Map New forecast layout! Learn more

10-Day Weather Forecast

Advertisements
Track Severe Weather on mobile